Sparks, Oklahoma
Current Conditions -  °F | °C
As of 3:55 PM on Saturday 25 Oct 2014 (Local Time) from KCQB Reporting Station
Clear Clear  
Wind Chill: 90°   Ceiling: Unl
Heat Index: 93°   Visibility: 10mi
Dew Point: 68°   Wind: 5mph
Humidity: 49%   Direction: 190°S
Pressure: 30.03"   Gusts: NA
Location:  35.61°N, 96.82°W
Report Text: KCQB 252055Z AUTO 19004KT 10SM CLR 32/20 A3003 RMK AO2
Loading
Personal Weather Stations






























Interactive Weather Map
Tropical Storm Tracking
New forecast layout! Learn more

10-Day Weather Forecast

Advertisements
Track Severe Weather on mobile